createdAt,value
2023-05-25T00:00:25.216Z,99.90
2023-05-25T00:05:30.170Z,99.90
2023-05-25T00:10:33.753Z,99.90
2023-05-25T00:15:37.440Z,99.90
2023-05-25T00:20:42.390Z,99.90
2023-05-25T00:25:46.315Z,99.90
2023-05-25T00:30:50.144Z,99.90
2023-05-25T00:35:55.239Z,99.90
2023-05-25T00:40:59.332Z,99.90
2023-05-25T00:46:04.327Z,99.90
2023-05-25T00:51:09.434Z,99.90
2023-05-25T00:56:20.544Z,99.90
2023-05-25T01:01:25.205Z,99.90
2023-05-25T01:06:33.813Z,99.90
2023-05-25T01:11:40.474Z,99.90
2023-05-25T01:16:45.008Z,99.90
2023-05-25T01:22:02.036Z,99.90
2023-05-25T01:27:10.270Z,99.90
2023-05-25T01:32:15.001Z,99.90
2023-05-25T01:37:23.427Z,99.90
2023-05-25T01:42:27.200Z,99.90
2023-05-25T01:47:34.639Z,99.90
2023-05-25T01:52:43.128Z,99.90
2023-05-25T01:57:52.503Z,99.90
2023-05-25T02:02:56.595Z,99.90
2023-05-25T02:08:01.954Z,99.90
2023-05-25T02:13:08.954Z,99.90
2023-05-25T02:18:14.084Z,99.90
2023-05-25T02:23:19.509Z,99.90
2023-05-25T02:28:23.297Z,99.90
2023-05-25T02:33:27.095Z,99.90
2023-05-25T02:38:32.024Z,99.90
2023-05-25T02:43:36.155Z,99.90
2023-05-25T02:48:39.767Z,99.90
2023-05-25T02:53:45.969Z,99.90
2023-05-25T02:58:49.527Z,99.90
2023-05-25T03:04:03.717Z,99.90
2023-05-25T03:09:13.612Z,99.90
2023-05-25T03:14:17.962Z,99.90
2023-05-25T03:19:28.544Z,99.90
2023-05-25T03:24:33.540Z,99.90
2023-05-25T03:29:39.565Z,99.90
2023-05-25T03:34:45.362Z,99.90
2023-05-25T03:39:53.650Z,99.90
2023-05-25T03:44:57.538Z,99.90
2023-05-25T03:50:01.348Z,99.90
2023-05-25T03:55:07.369Z,99.90
2023-05-25T04:00:12.055Z,99.90
2023-05-25T04:05:19.615Z,99.90
2023-05-25T04:10:24.861Z,99.90
2023-05-25T04:15:28.563Z,99.90
2023-05-25T04:20:47.846Z,99.90
2023-05-25T04:25:54.277Z,99.90
2023-05-25T04:30:58.672Z,99.90
2023-05-25T04:36:34.598Z,99.90
2023-05-25T04:41:43.107Z,99.90
2023-05-25T04:46:47.441Z,99.90
2023-05-25T04:52:02.785Z,99.90
2023-05-25T04:57:09.565Z,99.90
2023-05-25T05:02:13.264Z,99.90
2023-05-25T05:07:17.001Z,99.90
2023-05-25T05:12:22.100Z,99.90
2023-05-25T05:17:29.491Z,99.90
2023-05-25T05:22:35.182Z,99.90
2023-05-25T05:27:41.877Z,99.90
2023-05-25T05:32:53.114Z,99.90
2023-05-25T05:37:58.379Z,99.90
2023-05-25T05:43:03.056Z,99.90
2023-05-25T05:48:10.232Z,99.90
2023-05-25T05:53:13.899Z,99.90
2023-05-25T05:58:19.041Z,99.90
2023-05-25T06:03:23.108Z,99.90
2023-05-25T06:08:27.003Z,99.90
2023-05-25T06:13:32.345Z,99.90
2023-05-25T06:18:35.957Z,99.90
2023-05-25T06:23:39.728Z,99.90
2023-05-25T06:28:44.870Z,99.90
2023-05-25T06:33:48.718Z,99.90
2023-05-25T06:38:52.606Z,99.90
2023-05-25T06:43:57.845Z,99.90
2023-05-25T06:49:08.989Z,99.90
2023-05-25T06:54:15.371Z,99.90
2023-05-25T06:59:20.494Z,99.90
2023-05-25T07:04:23.791Z,99.90
2023-05-25T07:09:27.381Z,99.90
2023-05-25T07:14:32.737Z,99.90
2023-05-25T07:19:36.335Z,99.90
2023-05-25T07:24:40.083Z,99.90
2023-05-25T07:29:45.096Z,99.90
2023-05-25T07:34:48.760Z,99.90
2023-05-25T07:39:52.436Z,99.10
2023-05-25T07:44:57.394Z,98.80
2023-05-25T07:50:01.085Z,98.60
2023-05-25T07:55:04.736Z,97.90
2023-05-25T08:00:12.110Z,96.70
2023-05-25T08:05:18.563Z,95.80
2023-05-25T08:10:23.819Z,94.00
2023-05-25T08:15:29.054Z,92.80
2023-05-25T08:20:32.877Z,91.20
2023-05-25T08:25:36.715Z,90.50
2023-05-25T08:30:41.799Z,89.40
2023-05-25T08:35:45.790Z,89.50
2023-05-25T08:41:01.334Z,88.40
2023-05-25T08:46:08.116Z,87.20
2023-05-25T08:51:14.963Z,86.00
2023-05-25T08:56:21.952Z,85.60
2023-05-25T09:01:30.497Z,84.90
2023-05-25T09:06:37.137Z,83.90
2023-05-25T09:11:44.280Z,82.40
2023-05-25T09:16:51.830Z,81.00
2023-05-25T09:22:03.253Z,79.60
2023-05-25T09:27:19.582Z,76.50
2023-05-25T09:32:24.417Z,75.50
2023-05-25T09:37:28.565Z,73.80
2023-05-25T09:42:32.541Z,71.10
2023-05-25T09:47:38.257Z,70.30
2023-05-25T09:52:42.549Z,69.10
2023-05-25T09:57:46.364Z,68.40
2023-05-25T10:02:51.186Z,68.10
2023-05-25T10:07:56.188Z,68.30
2023-05-25T10:13:01.001Z,67.60
2023-05-25T10:18:08.080Z,66.80
2023-05-25T10:23:13.995Z,65.90
2023-05-25T10:28:23.416Z,65.70
2023-05-25T10:38:38.984Z,65.10
2023-05-25T10:43:43.086Z,64.10
2023-05-25T10:48:50.522Z,64.00
2023-05-25T10:54:02.167Z,64.00
2023-05-25T10:59:06.685Z,63.20
2023-05-25T11:04:18.644Z,62.40
2023-05-25T11:09:29.254Z,62.30
2023-05-25T11:14:34.139Z,62.10
2023-05-25T11:19:43.762Z,60.70
2023-05-25T11:24:48.133Z,61.10
2023-05-25T11:29:52.789Z,61.50
2023-05-25T11:34:59.936Z,61.50
2023-05-25T11:40:09.649Z,61.10
2023-05-25T11:45:15.693Z,60.60
2023-05-25T11:50:20.488Z,59.90
2023-05-25T11:55:24.294Z,59.90
2023-05-25T12:00:29.161Z,60.10
2023-05-25T12:05:41.140Z,59.80
2023-05-25T12:10:52.646Z,60.00
2023-05-25T12:15:58.064Z,60.40
2023-05-25T12:21:08.409Z,60.20
2023-05-25T12:26:13.367Z,59.80
2023-05-25T12:31:24.180Z,59.60
2023-05-25T12:36:43.389Z,60.00
2023-05-25T12:41:49.434Z,59.20
2023-05-25T12:46:57.696Z,59.00
2023-05-25T12:52:03.922Z,59.20
2023-05-25T12:57:08.401Z,58.90
2023-05-25T13:02:12.795Z,59.20
2023-05-25T13:07:17.941Z,59.10
2023-05-25T13:12:21.578Z,59.70
2023-05-25T13:17:25.270Z,60.20
2023-05-25T13:22:30.328Z,60.10
2023-05-25T13:27:33.983Z,59.20
2023-05-25T13:32:37.640Z,59.40
2023-05-25T13:37:42.674Z,59.30
2023-05-25T13:42:45.938Z,59.40
2023-05-25T13:47:50.483Z,59.20
2023-05-25T13:52:55.651Z,59.40
2023-05-25T13:57:58.928Z,59.20
2023-05-25T14:03:02.731Z,59.20
2023-05-25T14:08:08.078Z,59.20
2023-05-25T14:13:11.585Z,58.70
2023-05-25T14:18:15.371Z,58.90
2023-05-25T14:23:21.595Z,58.70
2023-05-25T14:28:25.159Z,58.80
2023-05-25T14:33:30.530Z,58.70
2023-05-25T14:38:36.389Z,58.70
2023-05-25T14:43:39.890Z,59.00
2023-05-25T14:48:43.685Z,59.10
2023-05-25T14:53:48.626Z,59.30
2023-05-25T14:58:52.067Z,59.20
2023-05-25T15:03:55.745Z,59.50
2023-05-25T15:09:00.900Z,59.50
2023-05-25T15:14:04.324Z,59.30
2023-05-25T15:19:10.680Z,59.20
2023-05-25T15:24:17.262Z,59.40
2023-05-25T15:29:20.595Z,58.90
2023-05-25T15:34:24.214Z,58.70
2023-05-25T15:39:29.294Z,58.80
2023-05-25T15:44:32.926Z,58.90
2023-05-25T15:49:37.470Z,59.00
2023-05-25T15:54:42.516Z,59.00
2023-05-25T15:59:45.930Z,58.80
2023-05-25T16:04:49.499Z,58.80
2023-05-25T16:09:54.613Z,58.30
2023-05-25T16:14:58.897Z,57.90
2023-05-25T16:20:02.711Z,57.90
2023-05-25T16:25:08.869Z,57.30
2023-05-25T16:30:13.709Z,57.00
2023-05-25T16:35:17.390Z,57.00
2023-05-25T16:40:22.652Z,56.30
2023-05-25T16:45:26.938Z,56.10
2023-05-25T16:50:31.076Z,56.20
2023-05-25T16:55:36.049Z,56.00
2023-05-25T17:00:39.119Z,55.70
2023-05-25T17:05:43.012Z,55.60
2023-05-25T17:10:50.236Z,55.40
2023-05-25T17:15:54.220Z,55.10
2023-05-25T17:20:57.847Z,55.40
2023-05-25T17:26:02.803Z,55.70
2023-05-25T17:31:06.322Z,55.60
2023-05-25T17:36:09.857Z,55.90
2023-05-25T17:41:14.841Z,56.50
2023-05-25T17:46:18.296Z,56.70
2023-05-25T17:51:22.287Z,56.70
2023-05-25T17:56:27.233Z,56.60
2023-05-25T18:01:30.638Z,56.50
2023-05-25T18:06:34.071Z,56.70
2023-05-25T18:11:38.793Z,56.30
2023-05-25T18:16:44.526Z,56.70
2023-05-25T18:21:47.806Z,56.90
2023-05-25T18:26:52.443Z,57.50
2023-05-25T18:31:56.077Z,57.90
2023-05-25T18:36:59.803Z,58.70
2023-05-25T18:42:04.757Z,59.80
2023-05-25T18:47:08.518Z,60.80
2023-05-25T18:52:12.155Z,61.70
2023-05-25T18:57:17.119Z,62.60
2023-05-25T19:02:21.240Z,63.40
2023-05-25T19:07:24.640Z,64.20
2023-05-25T19:12:30.061Z,65.00
2023-05-25T19:17:33.863Z,65.80
2023-05-25T19:22:37.515Z,66.50
2023-05-25T19:27:46.304Z,67.10
2023-05-25T19:32:50.221Z,67.90
2023-05-25T19:37:53.891Z,68.60
2023-05-25T19:42:58.542Z,69.30
2023-05-25T19:48:01.983Z,70.00
2023-05-25T19:53:05.664Z,70.70
2023-05-25T19:58:10.305Z,71.30
2023-05-25T20:03:16.119Z,72.00
2023-05-25T20:08:19.464Z,72.50
2023-05-25T20:13:24.139Z,73.00
2023-05-25T20:18:27.425Z,73.60
2023-05-25T20:23:30.737Z,73.90
2023-05-25T20:28:35.307Z,74.50
2023-05-25T20:33:40.035Z,74.90
2023-05-25T20:38:45.144Z,75.20
2023-05-25T20:43:50.200Z,75.60
2023-05-25T20:48:54.364Z,76.10
2023-05-25T20:53:58.091Z,76.60
2023-05-25T20:59:03.112Z,77.00
2023-05-25T21:04:06.885Z,77.40
2023-05-25T21:09:10.597Z,78.00
2023-05-25T21:14:15.619Z,78.60
2023-05-25T21:19:19.284Z,79.40
2023-05-25T21:24:22.954Z,79.40
2023-05-25T21:29:28.138Z,80.10
2023-05-25T21:34:31.691Z,80.80
2023-05-25T21:39:35.286Z,81.50
2023-05-25T21:44:40.590Z,82.30
2023-05-25T21:49:44.180Z,83.10
2023-05-25T21:54:54.957Z,83.70
2023-05-25T21:59:59.971Z,84.50
2023-05-25T22:05:03.598Z,85.40
2023-05-25T22:10:08.423Z,86.10
2023-05-25T22:15:13.466Z,86.80
2023-05-25T22:20:17.740Z,87.60
2023-05-25T22:25:21.074Z,88.50
2023-05-25T22:30:25.980Z,89.20
2023-05-25T22:35:29.588Z,90.00
2023-05-25T22:40:33.128Z,90.40
2023-05-25T22:45:38.147Z,90.80
2023-05-25T22:50:41.673Z,91.20
2023-05-25T22:55:47.164Z,91.50
2023-05-25T23:00:52.010Z,91.80
2023-05-25T23:05:55.589Z,92.10
2023-05-25T23:10:59.264Z,92.50
2023-05-25T23:16:04.475Z,92.90
2023-05-25T23:21:08.289Z,93.30
2023-05-25T23:26:11.999Z,93.80
2023-05-25T23:31:17.046Z,94.20
2023-05-25T23:36:21.234Z,94.50
2023-05-25T23:41:25.781Z,94.90
2023-05-25T23:46:31.896Z,95.30
2023-05-25T23:51:35.184Z,95.60
2023-05-25T23:56:38.410Z,95.90
